• Join FlightAware (Why Join?)
  • Login
  • US Flag 
12:21PM EDT


 

Airport Tracker/Info


-or-


 

Live Flight TrackerFlight Track Log ✈ TCF6008 ✈ 21-May-2013 ✈ KLGA - KGSO

Flight Track Log - Related Links

Times and Time Zones

All times are in EDT time to prevent confusion due to time zone crossing. See the TCF6008 flight status page for this flight to view local times or setup timezone preferences in your user account.

Time Position Orientation Groundspeed Altitude Reporting Facility
EDT Latitude Longitude Course Direction KTS MPH feet Rate Location/Type
02:50PM 40.7333 -73.8167 30° Northeast 203 234 2,500  Level New York TRACON
02:51PM 40.8000 -73.7667 30° Northeast 245 282 4,900 2,400 Climbing New York TRACON
02:52PM 40.8667 -73.8167 330° Northwest 266 306 7,600 2,700 Climbing New York TRACON
02:53PM 40.8833 -73.9167 282° West 274 315 10,600 2,340 Climbing New York TRACON
02:54PM 40.8667 -74.0167 258° West 319 367 12,400 1,440 Climbing New York TRACON
02:56PM 40.7519 -74.2583 238° Southwest 358 412 15,200 1,260 Climbing New York Center
02:57PM 40.7031 -74.3597 238° Southwest 358 412 16,400 1,680 Climbing New York Center
02:58PM 40.6344 -74.4847 234° Southwest 378 435 18,600 2,160 Climbing New York Center
02:59PM 40.5792 -74.5856 234° Southwest 378 435 20,800 2,100 Climbing New York Center
03:00PM 40.5150 -74.6967 233° Southwest 383 441 22,800 1,980 Climbing New York Center
03:01PM 40.4483 -74.8183 234° Southwest 396 456 24,800 1,740 Climbing New York Center
03:02PM 40.3817 -74.9369 234° Southwest 406 467 26,400 1,620 Climbing New York Center
03:03PM 40.3106 -75.0633 234° Southwest 419 482 28,000 1,440 Climbing New York Center
03:04PM 40.2392 -75.1894 233° Southwest 427 491 29,300 960 Climbing New York Center
03:05PM 40.1675 -75.3181 234° Southwest 437 503 30,000 300 Climbing New York Center
03:06PM 40.0856 -75.4456 230° Southwest 447 514 30,000  Level New York Center
03:07PM 39.9994 -75.5672 227° Southwest 458 527 30,000  Level New York Center
03:08PM 39.9131 -75.6858 227° Southwest 463 533 30,000  Level New York Center
03:09PM 39.8328 -75.8125 230° Southwest 463 533 30,000  Level New York Center
03:10PM 39.7500 -75.9389 230° Southwest 463 533 30,000  Level New York Center
03:12PM 39.5639 -76.2375 231° Southwest 464 534 30,000  Level Washington Center
03:13PM 39.4797 -76.3633 229° Southwest 464 534 30,000  Level Washington Center
03:15PM 39.3997 -76.4886 230° Southwest 464 534 30,000  Level Washington Center
03:16PM 39.3133 -76.6164 229° Southwest 469 540 30,000  Level Washington Center
03:16PM 39.2350 -76.7411 231° Southwest 469 540 30,000  Level Washington Center
03:17PM 39.1525 -76.8711 231° Southwest 469 540 30,000  Level Washington Center
03:19PM 39.0742 -76.9925 230° Southwest 464 534 30,000  Level Washington Center
03:19PM 38.9808 -77.1083 224° Southwest 464 534 30,000  Level Washington Center
03:20PM 38.8836 -77.2131 220° Southwest 464 534 30,000  Level Washington Center
03:22PM 38.7864 -77.3200 221° Southwest 464 534 30,000  Level Washington Center
03:22PM 38.6889 -77.4269 221° Southwest 464 534 30,000  Level Washington Center
03:23PM 38.5892 -77.5358 220° Southwest 464 534 30,000  Level Washington Center
03:24PM 38.4914 -77.6422 220° Southwest 464 534 30,000  Level Washington Center
03:26PM 38.3936 -77.7481 220° Southwest 464 534 30,000  Level Washington Center
03:26PM 38.2958 -77.8564 221° Southwest 464 534 30,000  Level Washington Center
03:27PM 38.1958 -77.9644 220° Southwest 464 534 30,000  Level Washington Center
03:29PM 38.0850 -78.0794 219° Southwest 464 534 30,000  Level Washington Center
03:29PM 37.9931 -78.1872 223° Southwest 464 534 30,000 -720 Level Washington Center
03:30PM 37.9067 -78.3131 229° Southwest 464 534 28,600 -1,740 Descending Washington Center
03:31PM 37.8333 -78.4208 229° Southwest 464 534 26,500 -2,040 Descending Washington Center
03:33PM 37.7533 -78.5336 228° Southwest 453 521 24,500 -1,680 Descending Washington Center
03:33PM 37.6756 -78.6458 229° Southwest 438 504 23,200 -1,200 Descending Washington Center
03:34PM 37.5978 -78.7528 227° Southwest 426 490 22,200 -600 Descending Washington Center
03:35PM 37.5131 -78.8750 229° Southwest 426 490 22,000 -120 Descending Washington Center
03:37PM 37.4372 -78.9817 228° Southwest 426 490 22,000  Level Washington Center
03:37PM 37.3589 -79.0906 228° Southwest 426 490 22,000 -120 Level Washington Center
03:38PM 37.2806 -79.1967 227° Southwest 426 490 21,800 -600 Descending Washington Center
03:39PM 37.2042 -79.3078 229° Southwest 426 490 20,800 -1,140 Descending Washington Center
03:40PM 37.1297 -79.4189 230° Southwest 426 490 19,600 -1,260 Descending Washington Center
03:41PM 37.0683 -79.5147 231° Southwest 420 483 18,300 -1,260 Descending Washington Center
03:42PM 36.9981 -79.6203 230° Southwest 409 471 17,100 -1,200 Descending Washington Center
03:44PM 36.9199 -79.7196 229° Southwest  Level FlightAware Approximate
03:51PM 36.2654 -79.9832 175° South  Level FlightAware Approximate
03:52PM 36.1563 -79.9723 175° South  Level FlightAware Approximate
03:53PM 36.1013 -79.9411 180° South  Level Estimated
03:54PM 36.1000 -79.9333 15° North  Level FlightAware Approximate
03:55PM 36.1013 -79.9411 15° North  Level Estimated
03:56PM 36.1000 -79.9333 15° North  Level FlightAware Approximate
03:57PM 36.1013 -79.9411 15° North  Level Estimated
03:58PM 36.1000 -79.9333 15° North  Level FlightAware Approximate